createdAt,value
2022-07-26T04:31:42.386Z,18.73
2022-07-26T04:36:44.377Z,13.68
2022-07-26T04:41:46.307Z,14.02
2022-07-26T04:46:48.285Z,14.95
2022-07-26T04:51:50.236Z,16.55
2022-07-26T04:56:52.440Z,14.68
2022-07-26T05:01:54.536Z,15.55
2022-07-26T05:07:02.360Z,18.70
2022-07-26T05:12:04.834Z,17.50
2022-07-26T05:17:08.814Z,16.98
2022-07-26T05:22:12.704Z,17.27
2022-07-26T05:27:14.688Z,14.52
2022-07-26T05:32:16.814Z,15.27
2022-07-26T05:37:18.783Z,13.45
2022-07-26T05:42:20.766Z,15.48
2022-07-26T05:47:22.850Z,14.35
2022-07-26T05:52:24.829Z,13.98
2022-07-26T05:57:26.820Z,11.75
2022-07-26T06:02:28.877Z,14.90
2022-07-26T06:07:30.952Z,14.25
2022-07-26T06:12:33.089Z,13.35
2022-07-26T06:17:40.664Z,10.27
2022-07-26T06:22:42.832Z,10.50
2022-07-26T06:27:44.898Z,10.15
2022-07-26T06:32:47.015Z,11.40
2022-07-26T06:37:48.988Z,10.63
2022-07-26T06:42:50.998Z,12.35
2022-07-26T06:47:53.066Z,11.30
2022-07-26T06:52:55.146Z,11.63
2022-07-26T06:57:58.102Z,9.18
2022-07-26T07:03:00.099Z,9.23
2022-07-26T07:08:02.087Z,8.35
2022-07-26T07:13:04.501Z,12.02
2022-07-26T07:18:06.494Z,10.13
2022-07-26T07:23:08.565Z,10.23
2022-07-26T07:28:10.546Z,10.77
2022-07-26T07:33:21.935Z,8.90
2022-07-26T07:38:25.158Z,7.97
2022-07-26T07:43:27.158Z,9.82
2022-07-26T07:48:29.358Z,6.10
2022-07-26T07:53:31.363Z,10.38
2022-07-26T07:58:33.357Z,7.75
2022-07-26T08:03:38.740Z,7.65
2022-07-26T08:08:41.453Z,7.38
2022-07-26T08:13:47.927Z,12.40
2022-07-26T08:18:57.758Z,11.40
2022-07-26T08:24:00.377Z,9.27
2022-07-26T08:29:02.323Z,9.05
2022-07-26T08:34:04.337Z,5.10
2022-07-26T08:39:06.773Z,5.70
2022-07-26T08:44:11.198Z,8.15
2022-07-26T08:49:15.165Z,9.40
2022-07-26T08:54:17.272Z,9.68
2022-07-26T08:59:22.286Z,7.18
2022-07-26T09:04:43.977Z,5.93
2022-07-26T09:10:00.313Z,6.07
2022-07-26T09:15:05.297Z,7.07
2022-07-26T09:20:35.665Z,6.20
2022-07-26T09:25:44.530Z,6.10
2022-07-26T09:30:53.419Z,5.32
2022-07-26T09:36:07.316Z,5.80
2022-07-26T09:41:34.284Z,5.95
2022-07-26T09:46:58.912Z,5.25
2022-07-26T09:52:00.971Z,5.72
2022-07-26T09:57:03.583Z,7.47
2022-07-26T10:02:06.120Z,6.20
2022-07-26T10:07:10.273Z,7.63
2022-07-26T10:12:16.155Z,4.53
2022-07-26T10:17:28.924Z,4.28
2022-07-26T10:22:45.412Z,12.65
2022-07-26T10:27:54.414Z,6.22
2022-07-26T10:33:16.105Z,5.15
2022-07-26T10:38:29.474Z,4.30
2022-07-26T10:43:41.447Z,4.00
2022-07-26T10:49:05.190Z,5.18
2022-07-26T10:54:10.770Z,4.00
2022-07-26T10:59:54.830Z,5.43
2022-07-26T11:05:12.610Z,4.57
2022-07-26T11:10:15.748Z,5.22
2022-07-26T11:15:19.349Z,6.43
2022-07-26T11:20:29.786Z,5.70
2022-07-26T11:25:32.209Z,4.47
2022-07-26T11:30:34.771Z,3.47
2022-07-26T11:35:36.883Z,8.30
2022-07-26T11:40:44.216Z,2.90
2022-07-26T11:45:52.754Z,5.10
2022-07-26T11:51:13.177Z,7.95
2022-07-26T11:56:21.643Z,6.35
2022-07-26T12:01:27.499Z,6.65
2022-07-26T12:06:30.294Z,6.90
2022-07-26T12:11:41.816Z,3.40
2022-07-26T12:16:45.863Z,5.47
2022-07-26T12:21:54.314Z,4.07
2022-07-26T12:27:22.736Z,7.18
2022-07-26T12:32:42.532Z,5.57
2022-07-26T12:37:47.669Z,5.00
2022-07-26T12:43:01.109Z,6.47
2022-07-26T12:48:10.890Z,4.63
2022-07-26T12:53:12.962Z,3.30
2022-07-26T12:58:15.082Z,5.20
2022-07-26T13:03:17.053Z,3.05
2022-07-26T13:08:19.051Z,7.65
2022-07-26T13:13:21.128Z,8.27
2022-07-26T13:18:23.106Z,4.10
2022-07-26T13:23:26.863Z,3.60
2022-07-26T13:28:29.008Z,5.63
2022-07-26T13:33:32.823Z,6.25
2022-07-26T13:38:35.279Z,6.13
2022-07-26T13:43:37.258Z,3.72
2022-07-26T13:48:48.034Z,7.57
2022-07-26T13:54:00.130Z,8.60
2022-07-26T13:59:02.099Z,5.85
2022-07-26T14:04:05.807Z,6.00
2022-07-26T14:09:10.942Z,4.80
2022-07-26T14:14:14.176Z,4.07
2022-07-26T14:19:17.339Z,6.45
2022-07-26T14:24:20.851Z,6.70
2022-07-26T14:29:23.233Z,4.25
2022-07-26T14:34:25.538Z,4.60
2022-07-26T14:39:27.534Z,4.47
2022-07-26T14:44:29.714Z,4.95
2022-07-26T14:49:31.702Z,6.32
2022-07-26T14:54:33.713Z,2.83
2022-07-26T14:59:35.657Z,3.80
2022-07-26T15:04:37.686Z,4.95
2022-07-26T15:09:39.834Z,5.35
2022-07-26T15:14:45.466Z,2.67
2022-07-26T15:19:47.455Z,2.22
2022-07-26T15:24:49.454Z,5.40
2022-07-26T15:29:51.474Z,3.42
2022-07-26T15:34:54.048Z,3.83
2022-07-26T15:39:56.072Z,3.13
2022-07-26T15:44:58.917Z,2.78
2022-07-26T15:50:01.198Z,3.97
2022-07-26T15:55:03.223Z,6.32
2022-07-26T16:00:11.748Z,2.70
2022-07-26T16:05:14.502Z,4.63
2022-07-26T16:10:16.666Z,6.32
2022-07-26T16:15:19.139Z,4.05
2022-07-26T16:20:21.248Z,5.25
2022-07-26T16:25:23.449Z,5.38
2022-07-26T16:30:25.703Z,4.63
2022-07-26T16:35:28.009Z,4.07
2022-07-26T16:40:30.096Z,3.15
2022-07-26T16:45:32.234Z,6.20
2022-07-26T16:50:34.897Z,6.50
2022-07-26T16:55:36.910Z,4.25
2022-07-26T17:00:38.961Z,2.60
2022-07-26T17:05:41.134Z,3.47
2022-07-26T17:10:44.205Z,4.50
2022-07-26T17:15:46.423Z,4.30
2022-07-26T17:20:48.585Z,4.82
2022-07-26T17:25:50.581Z,3.25
2022-07-26T17:30:52.634Z,3.45
2022-07-26T17:35:54.965Z,2.72
2022-07-26T17:40:59.421Z,4.18
2022-07-26T17:46:01.510Z,2.67
2022-07-26T17:51:03.633Z,3.60
2022-07-26T17:56:05.893Z,4.32
2022-07-26T18:01:07.869Z,9.40
2022-07-26T18:06:10.482Z,4.80
2022-07-26T18:11:12.660Z,3.47
2022-07-26T18:16:14.778Z,3.45
2022-07-26T18:21:16.825Z,2.03
2022-07-26T18:26:18.841Z,3.17
2022-07-26T18:31:20.919Z,3.03
2022-07-26T18:36:23.146Z,2.97
2022-07-26T18:41:25.166Z,3.15
2022-07-26T18:46:27.207Z,2.55
2022-07-26T18:51:29.460Z,6.05
2022-07-26T18:56:33.775Z,3.75
2022-07-26T19:01:35.947Z,2.50
2022-07-26T19:06:39.909Z,4.05
2022-07-26T19:11:41.962Z,2.90
2022-07-26T19:16:50.457Z,4.00
2022-07-26T19:21:52.447Z,2.47
2022-07-26T19:26:54.422Z,3.40
2022-07-26T19:31:56.417Z,2.65
2022-07-26T19:36:58.777Z,2.60
2022-07-26T19:42:00.758Z,7.93
2022-07-26T19:47:02.810Z,3.78
2022-07-26T19:52:09.695Z,3.63
2022-07-26T19:57:13.548Z,4.55
2022-07-26T20:02:15.850Z,5.50
2022-07-26T20:07:19.677Z,6.28
2022-07-26T20:12:22.042Z,3.25
2022-07-26T20:17:25.447Z,6.00
